Humidity-temperature Sensor

Selected Measurement Type: Air Temperature

 
Air Temperature [°C]     6 entries per hour
Showing data from 5/25/2022 (00:00:00 Z) to 5/18/2022 (00:01:00 Z)
Previous Next [ Day | 3-Days | 7-Days ]
First Last
Prev [ Day | 3-Days | 7-Days ] Next
First Last

Start Time:     :
End Time:     :     
Time (in GMT) :00 :50 :40 :30 :20 :10
Previous Next [ Day | 3-Days | 7-Days ]
First Last
Prev [ Day | 3-Days | 7-Days ] Next
First Last


123 => good data
MM => data is determined as missing
-- => data not received/configured
Back to Top Back to Top
5/25/2022 00:00 to 23:10 27.10 27.04 26.95 27.09 27.14 26.96
5/24/2022 23:00 to 22:10 27.09 27.07 27.08 27.10 27.02 27.04
5/24/2022 22:00 to 21:10 27.11 27.18 27.29 27.18 27.22 27.25
5/24/2022 21:00 to 20:10 27.22 27.19 27.21 27.34 27.16 27.12
5/24/2022 20:00 to 19:10 27.12 27.14 27.24 27.19 27.09 27.12
5/24/2022 19:00 to 18:10 27.06 27.05 27.31 26.96 27.05 27.11
5/24/2022 18:00 to 17:10 27.05 27.11 27.15 27.16 27.04 27.04
5/24/2022 17:00 to 16:10 27.08 27.27 27.08 27.12 27.06 27.07
5/24/2022 16:00 to 15:10 27.04 26.96 26.88 26.88 26.93 27.07
5/24/2022 15:00 to 14:10 26.83 26.86 26.80 26.78 26.89 26.80
5/24/2022 14:00 to 13:10 26.79 26.76 26.48 26.57 26.70 26.88
5/24/2022 13:00 to 12:10 26.81 26.96 26.78 26.77 27.05 26.85
5/24/2022 12:00 to 11:10 26.79 26.83 26.79 26.95 26.86 26.89
5/24/2022 11:00 to 10:10 26.86 26.77 26.95 26.84 26.75 26.87
5/24/2022 10:00 to 9:10 26.90 26.93 26.75 26.60 27.12 26.83
5/24/2022 09:00 to 8:10 26.98 27.03 26.90 26.86 27.06 26.98
5/24/2022 08:00 to 7:10 26.97 26.98 26.89 26.97 26.98 27.01
5/24/2022 07:00 to 6:10 27.02 27.01 27.06 27.05 26.94 27.19
5/24/2022 06:00 to 5:10 26.90 27.10 27.06 27.09 26.94 27.26
5/24/2022 05:00 to 4:10 27.03 27.04 27.11 27.26 27.17 27.08
5/24/2022 04:00 to 3:10 27.19 27.27 27.22 27.14 27.34 27.22
5/24/2022 03:00 to 2:10 27.27 27.14 27.15 27.29 27.08 27.26
5/24/2022 02:00 to 1:10 27.11 27.08 27.05 27.15 27.48 27.06
5/24/2022 01:00 to 0:10 27.36 27.25 27.19 27.43 27.43 27.25
5/24/2022 00:00 to 23:10 27.27 27.34 27.31 27.50 27.44 27.47
5/23/2022 23:00 to 22:10 27.42 27.39 27.41 27.40 27.38 27.44
5/23/2022 22:00 to 21:10 27.39 27.45 27.45 27.39 27.44 27.33
5/23/2022 21:00 to 20:10 27.53 27.40 27.46 27.48 27.37 27.53
5/23/2022 20:00 to 19:10 27.50 27.39 27.52 27.50 27.40 27.37
5/23/2022 19:00 to 18:10 27.36 27.35 27.48 27.45 27.46 27.50
5/23/2022 18:00 to 17:10 27.43 27.43 27.31 27.39 27.42 27.34
5/23/2022 17:00 to 16:10 27.39 27.38 27.35 27.36 27.44 27.39
5/23/2022 16:00 to 15:10 27.40 27.24 27.23 27.30 27.24 27.37
5/23/2022 15:00 to 14:10 27.36 27.29 27.25 27.36 27.08 27.09
5/23/2022 14:00 to 13:10 27.09 27.02 26.96 27.05 27.04 27.12
5/23/2022 13:00 to 12:10 27.16 27.03 27.00 27.26 27.16 27.07
5/23/2022 12:00 to 11:10 27.04 27.03 27.16 26.91 26.99 26.98
5/23/2022 11:00 to 10:10 27.08 27.08 26.88 27.00 26.85 27.07
5/23/2022 10:00 to 9:10 26.89 26.94 26.93 26.99 26.93 26.97
5/23/2022 09:00 to 8:10 26.95 27.15 26.97 27.01 26.92 26.90
5/23/2022 08:00 to 7:10 26.97 26.98 26.96 27.04 27.15 26.96
5/23/2022 07:00 to 6:10 27.11 26.97 27.07 26.92 26.91 26.98
5/23/2022 06:00 to 5:10 26.95 27.13 27.09 27.06 27.09 27.41
5/23/2022 05:00 to 4:10 27.13 27.24 27.28 27.34 27.37 27.25
5/23/2022 04:00 to 3:10 27.39 27.32 27.40 27.27 27.29 27.41
5/23/2022 03:00 to 2:10 27.34 27.37 27.23 27.21 27.24 27.24
5/23/2022 02:00 to 1:10 27.32 27.29 27.25 27.44 27.34 27.48
5/23/2022 01:00 to 0:10 27.31 27.23 27.40 27.26 27.26 27.35
5/23/2022 00:00 to 23:10 27.53 27.77 27.71 27.89 27.78 27.78
5/22/2022 23:00 to 22:10 27.75 27.65 27.75 27.69 27.79 27.80
5/22/2022 22:00 to 21:10 27.82 27.66 27.73 27.73 27.76 27.93
5/22/2022 21:00 to 20:10 27.67 27.88 27.68 27.70 27.80 27.74
5/22/2022 20:00 to 19:10 27.81 27.78 27.80 27.85 27.96 27.90
5/22/2022 19:00 to 18:10 27.74 27.71 27.73 27.77 27.81 27.59
5/22/2022 18:00 to 17:10 27.50 27.59 27.49 27.55 27.45 27.64
5/22/2022 17:00 to 16:10 27.44 27.57 27.37 27.46 27.47 27.31
5/22/2022 16:00 to 15:10 27.48 27.41 27.25 27.21 27.23 27.17
5/22/2022 15:00 to 14:10 27.30 27.31 27.23 27.27 27.28 27.19
5/22/2022 14:00 to 13:10 27.20 27.23 27.18 27.25 27.13 26.97
5/22/2022 13:00 to 12:10 27.18 27.20 27.14 27.32 26.96 27.15
5/22/2022 12:00 to 11:10 26.91 27.19 27.16 27.14 27.22 27.07
5/22/2022 11:00 to 10:10 26.91 26.86 26.85 26.80 26.76 26.79
5/22/2022 10:00 to 9:10 26.84 26.70 26.77 26.91 26.73 26.84
5/22/2022 09:00 to 8:10 26.75 26.79 26.66 26.76 27.06 27.02
5/22/2022 08:00 to 7:10 26.99 26.77 26.69 26.59 26.80 27.23
5/22/2022 07:00 to 6:10 27.18 27.34 27.26 27.24 27.25 27.25
5/22/2022 06:00 to 5:10 27.42 27.30 27.16 27.28 27.35 27.22
5/22/2022 05:00 to 4:10 27.46 27.29 27.37 27.14 27.22 27.23
5/22/2022 04:00 to 3:10 27.10 27.19 27.23 27.29 27.11 27.26
5/22/2022 03:00 to 2:10 27.14 27.17 27.09 27.13 27.28 27.03
5/22/2022 02:00 to 1:10 27.10 27.08 27.19 27.22 27.08 27.08
5/22/2022 01:00 to 0:10 27.16 27.19 27.22 27.13 27.37 27.16
5/22/2022 00:00 to 23:10 27.27 27.51 27.39 27.31 27.43 27.43
5/21/2022 23:00 to 22:10 27.54 27.45 27.45 27.42 27.45 27.34
5/21/2022 22:00 to 21:10 27.34 27.27 27.56 27.31 27.25 27.29
5/21/2022 21:00 to 20:10 27.16 27.22 27.30 27.27 27.24 27.35
5/21/2022 20:00 to 19:10 27.28 27.36 27.35 27.25 27.11 27.37
5/21/2022 19:00 to 18:10 27.32 27.33 27.55 27.38 27.32 27.28
5/21/2022 18:00 to 17:10 27.40 27.39 27.26 27.30 27.47 27.36
5/21/2022 17:00 to 16:10 27.41 27.49 27.26 27.26 27.33 27.34
5/21/2022 16:00 to 15:10 27.28 27.25 27.31 27.30 27.34 27.34
5/21/2022 15:00 to 14:10 27.35 27.32 27.35 27.25 27.29 27.39
5/21/2022 14:00 to 13:10 27.35 27.33 27.33 27.22 27.31 27.06
5/21/2022 13:00 to 12:10 27.03 27.07 27.25 27.14 27.12 27.11
5/21/2022 12:00 to 11:10 27.11 27.01 27.09 26.97 27.09 27.07
5/21/2022 11:00 to 10:10 26.84 27.00 27.06 27.01 26.96 26.92
5/21/2022 10:00 to 9:10 27.15 27.03 27.06 27.06 26.98 27.14
5/21/2022 09:00 to 8:10 27.12 27.09 27.33 27.28 27.14 27.26
5/21/2022 08:00 to 7:10 27.20 27.10 27.08 26.98 27.03 26.91
5/21/2022 07:00 to 6:10 27.02 26.98 27.19 27.20 27.11 27.31
5/21/2022 06:00 to 5:10 27.44 27.43 27.32 27.34 27.36 27.32
5/21/2022 05:00 to 4:10 27.39 27.41 27.45 27.42 27.17 27.35
5/21/2022 04:00 to 3:10 27.28 27.23 27.28 27.47 27.33 27.47
5/21/2022 03:00 to 2:10 27.30 27.33 27.33 27.28 27.22 27.24
5/21/2022 02:00 to 1:10 27.35 27.37 27.36 27.35 27.34 27.34
5/21/2022 01:00 to 0:10 27.34 27.28 27.25 27.41 27.31 27.23
5/21/2022 00:00 to 23:10 27.23 27.40 27.33 27.28 27.46 27.47
5/20/2022 23:00 to 22:10 27.33 27.48 27.52 27.26 27.40 27.53
5/20/2022 22:00 to 21:10 27.51 27.41 27.28 27.32 27.39 27.63
5/20/2022 21:00 to 20:10 27.43 27.26 27.22 27.41 27.41 27.28
5/20/2022 20:00 to 19:10 27.20 27.15 27.28 27.29 27.27 27.24
5/20/2022 19:00 to 18:10 27.34 27.41 27.28 27.29 27.51 27.44
5/20/2022 18:00 to 17:10 27.35 27.45 27.48 27.48 27.46 27.35
5/20/2022 17:00 to 16:10 27.31 27.23 27.36 27.39 27.32 27.31
5/20/2022 16:00 to 15:10 27.35 27.34 27.33 27.36 27.42 27.34
5/20/2022 15:00 to 14:10 27.15 27.16 27.16 27.34 27.33 27.13
5/20/2022 14:00 to 13:10 27.32 27.13 27.12 27.03 27.05 27.05
5/20/2022 13:00 to 12:10 27.08 27.18 27.19 27.37 27.27 27.13
5/20/2022 12:00 to 11:10 27.29 27.05 27.30 27.14 27.04 27.15
5/20/2022 11:00 to 10:10 27.15 27.17 27.00 26.70 26.64 26.56
5/20/2022 10:00 to 9:10 26.48 26.68 26.92 27.00 27.01 26.88
5/20/2022 09:00 to 8:10 26.66 26.60 26.83 26.83 26.95 26.75
5/20/2022 08:00 to 7:10 26.88 26.93 27.04 27.00 27.07 27.05
5/20/2022 07:00 to 6:10 26.92 26.99 26.99 27.04 27.32 27.14
5/20/2022 06:00 to 5:10 27.19 27.19 26.97 27.23 27.12 27.35
5/20/2022 05:00 to 4:10 27.25 27.10 27.11 27.17 27.22 27.11
5/20/2022 04:00 to 3:10 27.21 26.96 26.91 27.18 27.00 26.89
5/20/2022 03:00 to 2:10 27.03 26.89 26.88 26.76 26.83 26.98
5/20/2022 02:00 to 1:10 26.89 26.66 26.58 26.41 25.86 26.36
5/20/2022 01:00 to 0:10 26.29 26.45 26.45 26.39 26.41 26.24
5/20/2022 00:00 to 23:10 26.32 25.84 25.58 25.80 26.08 26.13
5/19/2022 23:00 to 22:10 26.03 26.11 25.80 25.87 25.58 25.40
5/19/2022 22:00 to 21:10 25.32 25.26 25.29 25.10 24.95 25.01
5/19/2022 21:00 to 20:10 24.80 25.01 24.81 24.64 24.12 25.23
5/19/2022 20:00 to 19:10 25.20 24.86 24.84 23.74 23.69 23.77
5/19/2022 19:00 to 18:10 24.52 25.11 25.21 25.35 25.36 25.44
5/19/2022 18:00 to 17:10 25.33 24.47 24.38 24.22 25.05 25.72
5/19/2022 17:00 to 16:10 25.69 26.38 25.76 26.38 26.16 26.39
5/19/2022 16:00 to 15:10 26.11 26.05 25.95 26.02 25.94 25.97
5/19/2022 15:00 to 14:10 25.92 25.88 26.08 27.10 27.35 27.21
5/19/2022 14:00 to 13:10 27.07 27.09 27.20 27.12 27.19 27.20
5/19/2022 13:00 to 12:10 27.26 27.31 27.44 27.34 27.34 27.22
5/19/2022 12:00 to 11:10 27.24 26.98 27.05 26.99 26.84 26.74
5/19/2022 11:00 to 10:10 26.88 26.80 26.83 26.68 26.59 26.80
5/19/2022 10:00 to 9:10 26.62 26.76 26.92 27.16 27.15 27.15
5/19/2022 09:00 to 8:10 27.01 27.09 27.22 27.21 27.28 27.37
5/19/2022 08:00 to 7:10 27.33 27.41 27.19 27.30 27.50 27.31
5/19/2022 07:00 to 6:10 27.28 27.23 27.29 27.21 27.00 26.94
5/19/2022 06:00 to 5:10 26.98 26.87 26.86 26.83 26.78 26.62
5/19/2022 05:00 to 4:10 26.82 26.82 26.63 26.87 26.71 26.53
5/19/2022 04:00 to 3:10 26.56 26.52 26.38 26.37 26.44 26.41
5/19/2022 03:00 to 2:10 26.97 27.34 27.51 27.39 27.52 27.33
5/19/2022 02:00 to 1:10 27.55 27.59 27.40 27.46 27.44 27.42
5/19/2022 01:00 to 0:10 27.38 27.42 27.42 27.51 27.39 27.30
5/19/2022 00:00 to 23:10 27.40 27.46 27.34 27.58 27.59 27.40
5/18/2022 23:00 to 22:10 27.49 27.47 27.54 27.56 27.53 27.50
5/18/2022 22:00 to 21:10 27.51 27.47 27.29 27.41 27.50 27.38
5/18/2022 21:00 to 20:10 27.34 27.47 27.48 27.30 27.27 27.26
5/18/2022 20:00 to 19:10 27.31 27.18 27.11 27.03 27.15 27.49
5/18/2022 19:00 to 18:10 27.40 27.38 27.28 27.41 27.37 27.65
5/18/2022 18:00 to 17:10 27.48 27.59 27.34 27.71 27.39 27.66
5/18/2022 17:00 to 16:10 27.49 27.49 27.46 27.53 27.42 27.50
5/18/2022 16:00 to 15:10 27.55 27.51 27.46 27.35 27.57 27.40
5/18/2022 15:00 to 14:10 27.42 27.36 27.29 27.24 27.19 27.25
5/18/2022 14:00 to 13:10 27.34 27.37 27.26 27.36 27.21 27.18
5/18/2022 13:00 to 12:10 27.07 27.04 26.90 26.69 26.54 26.49
5/18/2022 12:00 to 11:10 26.50 26.91 26.94 26.96 27.08 27.13
5/18/2022 11:00 to 10:10 27.05 27.09 27.02 26.98 27.03 27.07
5/18/2022 10:00 to 9:10 26.93 27.11 27.05 27.31 26.91 26.78
5/18/2022 09:00 to 8:10 26.80 26.53 26.65 27.07 26.79 26.79
5/18/2022 08:00 to 7:10 26.76 26.74 26.79 26.95 26.84 26.76
5/18/2022 07:00 to 6:10 26.79 26.81 26.46 26.64 26.67 26.81
5/18/2022 06:00 to 5:10 26.88 27.12 27.23 27.10 27.41 27.13
5/18/2022 05:00 to 4:10 27.07 27.13 27.00 27.09 27.13 27.00
5/18/2022 04:00 to 3:10 27.02 27.03 26.89 26.83 26.80 26.91
5/18/2022 03:00 to 2:10 26.89 26.96 26.89 26.84 27.00 27.01
5/18/2022 02:00 to 1:10 26.95 26.76 26.67 26.59 26.45 26.41
5/18/2022 01:00 to 0:10 26.45 26.57 26.52 26.43 26.45 26.55